createdAt,value
2023-04-23T00:01:44.594Z,16.37
2023-04-23T00:04:13.657Z,16.40
2023-04-23T00:06:42.735Z,15.90
2023-04-23T00:09:10.850Z,15.40
2023-04-23T00:11:37.597Z,16.90
2023-04-23T00:14:04.344Z,16.40
2023-04-23T00:16:31.132Z,15.33
2023-04-23T00:18:57.601Z,15.80
2023-04-23T00:21:24.156Z,15.67
2023-04-23T00:23:50.644Z,17.20
2023-04-23T00:26:18.464Z,16.27
2023-04-23T00:28:44.907Z,16.03
2023-04-23T00:31:11.361Z,16.90
2023-04-23T00:33:38.513Z,16.60
2023-04-23T00:36:05.508Z,17.07
2023-04-23T00:38:32.075Z,16.87
2023-04-23T00:40:58.668Z,17.10
2023-04-23T00:43:25.094Z,17.60
2023-04-23T00:45:51.698Z,19.10
2023-04-23T00:48:18.326Z,17.50
2023-04-23T00:50:44.846Z,17.10
2023-04-23T00:53:11.362Z,17.33
2023-04-23T00:55:38.271Z,17.57
2023-04-23T00:58:06.715Z,17.67
2023-04-23T01:00:40.100Z,16.80
2023-04-23T01:03:06.789Z,16.50
2023-04-23T01:05:33.424Z,17.30
2023-04-23T01:08:00.210Z,17.63
2023-04-23T01:10:26.801Z,16.83
2023-04-23T01:12:53.597Z,17.40
2023-04-23T01:15:20.115Z,17.77
2023-04-23T01:17:47.277Z,18.03
2023-04-23T01:20:14.239Z,18.80
2023-04-23T01:22:40.803Z,19.57
2023-04-23T01:25:08.232Z,18.40
2023-04-23T01:27:36.092Z,19.57
2023-04-23T01:30:06.268Z,19.40
2023-04-23T01:32:33.208Z,18.70
2023-04-23T01:35:00.039Z,19.10
2023-04-23T01:37:27.509Z,19.03
2023-04-23T01:39:53.948Z,18.10
2023-04-23T01:42:20.474Z,18.10
2023-04-23T01:44:47.062Z,20.73
2023-04-23T01:47:13.680Z,19.20
2023-04-23T01:49:40.719Z,19.83
2023-04-23T01:52:07.269Z,19.10
2023-04-23T01:54:33.686Z,17.80
2023-04-23T01:57:00.966Z,20.27
2023-04-23T01:59:27.562Z,20.03
2023-04-23T02:01:54.082Z,20.10
2023-04-23T02:04:21.005Z,20.93
2023-04-23T02:06:50.223Z,20.30
2023-04-23T02:09:16.820Z,20.93
2023-04-23T02:11:43.319Z,20.53
2023-04-23T02:14:10.833Z,20.80
2023-04-23T02:16:37.380Z,19.70
2023-04-23T02:19:04.175Z,19.47
2023-04-23T02:21:31.487Z,19.40
2023-04-23T02:23:58.036Z,20.27
2023-04-23T02:26:25.238Z,20.73
2023-04-23T02:28:51.919Z,18.80
2023-04-23T02:31:20.648Z,18.50
2023-04-23T02:33:47.692Z,17.50
2023-04-23T02:36:14.346Z,18.77
2023-04-23T02:38:42.432Z,20.57
2023-04-23T02:41:09.117Z,19.57
2023-04-23T02:43:35.671Z,20.53
2023-04-23T02:46:08.525Z,20.50
2023-04-23T02:48:40.623Z,21.37
2023-04-23T02:51:10.590Z,20.27
2023-04-23T02:53:37.306Z,20.80
2023-04-23T02:56:03.855Z,19.67
2023-04-23T02:58:30.475Z,20.40
2023-04-23T03:00:57.750Z,21.67
2023-04-23T03:03:26.715Z,21.23
2023-04-23T03:05:54.196Z,19.43
2023-04-23T03:08:20.769Z,21.20
2023-04-23T03:10:47.198Z,19.10
2023-04-23T03:13:13.621Z,18.30
2023-04-23T03:15:40.691Z,19.47
2023-04-23T03:18:08.429Z,17.87
2023-04-23T03:20:35.818Z,18.80
2023-04-23T03:23:02.919Z,19.53
2023-04-23T03:25:29.346Z,20.90
2023-04-23T03:27:55.815Z,22.10
2023-04-23T03:30:22.297Z,22.90
2023-04-23T03:32:49.862Z,22.97
2023-04-23T03:35:16.792Z,22.40
2023-04-23T03:37:43.212Z,22.80
2023-04-23T03:40:09.958Z,23.73
2023-04-23T03:42:36.724Z,23.03
2023-04-23T03:45:03.406Z,22.37
2023-04-23T03:47:30.063Z,23.30
2023-04-23T03:49:56.854Z,22.97
2023-04-23T03:52:23.280Z,22.87
2023-04-23T03:54:49.711Z,23.40
2023-04-23T03:57:16.437Z,24.00
2023-04-23T03:59:42.878Z,21.37
2023-04-23T04:02:09.536Z,23.43
2023-04-23T04:04:36.776Z,23.10
2023-04-23T04:07:03.611Z,24.50
2023-04-23T04:09:30.028Z,23.60
2023-04-23T04:11:56.511Z,22.60
2023-04-23T04:14:23.328Z,23.23
2023-04-23T04:16:49.860Z,24.40
2023-04-23T04:19:16.380Z,23.50
2023-04-23T04:21:42.848Z,24.10
2023-04-23T04:24:11.443Z,23.60
2023-04-23T04:26:38.199Z,23.23
2023-04-23T04:29:04.707Z,22.03
2023-04-23T04:31:32.340Z,23.07
2023-04-23T04:33:58.926Z,23.87
2023-04-23T04:36:27.287Z,24.10
2023-04-23T04:38:58.217Z,23.03
2023-04-23T04:41:27.877Z,22.43
2023-04-23T04:43:54.863Z,22.83
2023-04-23T04:46:21.730Z,23.33
2023-04-23T04:48:48.662Z,23.70
2023-04-23T04:51:15.610Z,24.27
2023-04-23T04:53:42.055Z,22.60
2023-04-23T04:56:09.015Z,21.13
2023-04-23T04:58:35.531Z,22.20
2023-04-23T05:01:02.378Z,21.50
2023-04-23T05:03:29.208Z,21.57
2023-04-23T05:05:56.432Z,21.87
2023-04-23T05:08:22.970Z,21.73
2023-04-23T05:10:54.083Z,20.07
2023-04-23T05:13:20.613Z,21.10
2023-04-23T05:15:47.250Z,20.00
2023-04-23T05:18:13.775Z,18.73
2023-04-23T05:20:41.151Z,19.23
2023-04-23T05:23:07.646Z,20.10
2023-04-23T05:25:35.558Z,18.93
2023-04-23T05:28:02.421Z,19.70
2023-04-23T05:30:29.094Z,18.33
2023-04-23T05:32:55.679Z,18.40
2023-04-23T05:35:22.142Z,18.23
2023-04-23T05:37:48.567Z,18.27
2023-04-23T05:40:15.056Z,17.57
2023-04-23T05:42:41.478Z,16.57
2023-04-23T05:45:09.194Z,16.60
2023-04-23T05:47:36.467Z,16.30
2023-04-23T05:50:02.959Z,16.03
2023-04-23T05:52:33.363Z,16.60
2023-04-23T05:54:59.955Z,17.17
2023-04-23T05:57:26.556Z,16.47
2023-04-23T05:59:53.017Z,16.57
2023-04-23T06:02:20.899Z,15.23
2023-04-23T06:04:49.217Z,16.83
2023-04-23T06:07:16.180Z,15.90
2023-04-23T06:09:42.588Z,14.80
2023-04-23T06:12:10.594Z,15.10
2023-04-23T06:14:37.224Z,14.63
2023-04-23T06:17:03.694Z,14.67
2023-04-23T06:19:30.169Z,16.90
2023-04-23T06:21:56.745Z,14.60
2023-04-23T06:24:23.166Z,15.23
2023-04-23T06:26:49.593Z,15.03
2023-04-23T06:29:16.064Z,14.90
2023-04-23T06:31:42.704Z,14.87
2023-04-23T06:34:09.226Z,14.97
2023-04-23T06:36:35.694Z,14.13
2023-04-23T06:39:02.177Z,14.57
2023-04-23T06:41:28.765Z,13.57
2023-04-23T06:43:55.293Z,14.67
2023-04-23T06:46:21.770Z,14.07
2023-04-23T06:48:48.292Z,13.50
2023-04-23T06:51:14.892Z,12.70
2023-04-23T06:53:41.409Z,13.20
2023-04-23T06:56:08.551Z,12.67
2023-04-23T06:58:35.134Z,12.07
2023-04-23T07:01:06.271Z,13.07
2023-04-23T07:03:33.306Z,11.57
2023-04-23T07:06:00.140Z,11.80
2023-04-23T07:08:26.681Z,12.37
2023-04-23T07:10:53.489Z,12.50
2023-04-23T07:13:20.016Z,12.70
2023-04-23T07:15:46.678Z,11.50
2023-04-23T07:18:13.688Z,11.63
2023-04-23T07:20:40.253Z,13.40
2023-04-23T07:23:06.808Z,12.10
2023-04-23T07:25:33.372Z,11.10
2023-04-23T07:27:59.921Z,11.30
2023-04-23T07:30:27.640Z,10.90
2023-04-23T07:32:55.666Z,13.07
2023-04-23T07:35:22.430Z,12.20
2023-04-23T07:37:53.596Z,10.37
2023-04-23T07:40:23.956Z,12.20
2023-04-23T07:42:51.678Z,10.23
2023-04-23T07:45:19.136Z,9.70
2023-04-23T07:47:48.914Z,11.70
2023-04-23T07:50:15.552Z,10.47
2023-04-23T07:52:42.141Z,9.30
2023-04-23T07:55:09.717Z,10.33
2023-04-23T07:57:36.339Z,9.73
2023-04-23T08:00:04.114Z,8.97
2023-04-23T08:02:30.678Z,9.50
2023-04-23T08:04:57.448Z,9.53
2023-04-23T08:07:24.027Z,8.73
2023-04-23T08:09:50.591Z,8.53
2023-04-23T08:12:17.471Z,8.97
2023-04-23T08:14:44.830Z,8.90
2023-04-23T08:17:11.302Z,8.67
2023-04-23T08:19:37.710Z,7.27
2023-04-23T08:22:04.373Z,8.47
2023-04-23T08:24:30.883Z,8.07
2023-04-23T08:26:57.509Z,7.10
2023-04-23T08:29:23.962Z,6.57
2023-04-23T08:31:50.752Z,6.77
2023-04-23T08:34:17.216Z,7.07
2023-04-23T08:36:43.679Z,7.83
2023-04-23T08:39:10.143Z,6.60
2023-04-23T08:41:42.904Z,6.13
2023-04-23T08:44:16.456Z,6.10
2023-04-23T08:46:44.385Z,5.70
2023-04-23T08:49:16.638Z,5.17
2023-04-23T08:51:53.580Z,5.03
2023-04-23T08:54:27.570Z,4.47
2023-04-23T08:56:58.491Z,4.20
2023-04-23T09:00:02.913Z,4.17
2023-04-23T09:02:29.592Z,4.13
2023-04-23T09:04:56.508Z,3.70
2023-04-23T09:07:23.213Z,4.13
2023-04-23T09:09:49.861Z,3.70
2023-04-23T09:12:16.740Z,3.70
2023-04-23T09:14:48.614Z,4.97
2023-04-23T09:17:15.452Z,4.13
2023-04-23T09:19:42.843Z,3.70
2023-04-23T09:22:10.133Z,4.03
2023-04-23T09:24:36.656Z,4.10
2023-04-23T09:27:03.948Z,4.10
2023-04-23T09:29:31.132Z,3.43
2023-04-23T09:32:08.358Z,3.60
2023-04-23T09:34:40.569Z,3.10
2023-04-23T09:37:24.440Z,2.60
2023-04-23T09:39:53.556Z,2.77
2023-04-23T09:42:23.691Z,2.80
2023-04-23T09:45:04.383Z,3.03
2023-04-23T09:47:47.968Z,3.50
2023-04-23T09:50:14.579Z,3.13
2023-04-23T09:52:41.539Z,2.57
2023-04-23T09:55:08.613Z,3.10
2023-04-23T09:57:39.005Z,2.90
2023-04-23T10:00:17.275Z,2.50
2023-04-23T10:02:51.500Z,3.30
2023-04-23T10:05:27.221Z,3.10
2023-04-23T10:07:58.478Z,2.60
2023-04-23T10:10:25.702Z,2.40
2023-04-23T10:12:57.242Z,3.27
2023-04-23T10:15:26.709Z,3.10
2023-04-23T10:17:56.847Z,2.70
2023-04-23T10:20:24.069Z,3.70
2023-04-23T10:22:53.669Z,2.57
2023-04-23T10:25:21.232Z,3.00
2023-04-23T10:27:54.410Z,2.30
2023-04-23T10:30:22.107Z,2.63
2023-04-23T10:32:49.852Z,2.60
2023-04-23T10:35:16.769Z,2.73
2023-04-23T10:37:45.836Z,2.90
2023-04-23T10:40:14.903Z,4.33
2023-04-23T10:42:43.646Z,4.40
2023-04-23T10:47:47.940Z,3.00
2023-04-23T10:50:22.924Z,2.30
2023-04-23T10:52:53.435Z,2.43
2023-04-23T10:55:22.720Z,2.47
2023-04-23T10:58:15.876Z,2.40
2023-04-23T11:00:45.859Z,2.57
2023-04-23T11:03:44.645Z,2.87
2023-04-23T11:06:20.126Z,1.90
2023-04-23T11:08:54.309Z,2.23
2023-04-23T11:11:39.811Z,2.07
2023-04-23T11:14:14.322Z,2.10
2023-04-23T11:16:41.152Z,1.90
2023-04-23T11:19:12.757Z,2.03
2023-04-23T11:22:02.429Z,2.20
2023-04-23T11:24:33.117Z,2.10
2023-04-23T11:27:01.315Z,1.80
2023-04-23T11:29:28.664Z,1.90
2023-04-23T11:34:26.176Z,1.60
2023-04-23T11:36:54.736Z,1.60
2023-04-23T11:39:24.119Z,1.77
2023-04-23T11:41:52.322Z,2.17
2023-04-23T11:44:22.607Z,4.80
2023-04-23T11:46:50.146Z,18.33
2023-04-23T11:49:20.096Z,3.33
2023-04-23T11:51:47.081Z,2.37
2023-04-23T11:54:14.574Z,1.90
2023-04-23T11:56:41.765Z,2.00
2023-04-23T11:59:08.774Z,2.13
2023-04-23T12:01:46.085Z,1.73
2023-04-23T12:04:20.360Z,2.40
2023-04-23T12:06:48.687Z,1.90
2023-04-23T12:09:16.618Z,1.90
2023-04-23T12:11:44.772Z,1.40
2023-04-23T12:14:12.812Z,1.70
2023-04-23T12:16:44.255Z,1.30
2023-04-23T12:19:14.815Z,2.20
2023-04-23T12:21:48.196Z,1.77
2023-04-23T12:24:15.517Z,1.87
2023-04-23T12:26:46.032Z,1.83
2023-04-23T12:29:13.897Z,2.07
2023-04-23T12:31:40.523Z,1.90
2023-04-23T12:34:09.059Z,2.17
2023-04-23T12:36:40.787Z,1.40
2023-04-23T12:39:31.222Z,1.50
2023-04-23T12:42:10.769Z,1.50
2023-04-23T12:44:38.967Z,1.63
2023-04-23T12:47:11.308Z,1.40
2023-04-23T12:49:40.243Z,1.77
2023-04-23T12:52:07.868Z,1.60
2023-04-23T12:54:39.595Z,1.83
2023-04-23T12:57:07.971Z,1.67
2023-04-23T12:59:34.613Z,1.97
2023-04-23T13:02:04.252Z,1.73
2023-04-23T13:04:33.986Z,1.70
2023-04-23T13:07:00.860Z,1.80
2023-04-23T13:09:28.924Z,1.50
2023-04-23T13:11:56.012Z,1.60
2023-04-23T13:14:22.563Z,1.93
2023-04-23T13:16:49.534Z,1.50
2023-04-23T13:19:17.483Z,1.50
2023-04-23T13:21:44.757Z,1.73
2023-04-23T13:24:11.434Z,1.57
2023-04-23T13:26:38.081Z,1.53
2023-04-23T13:29:04.815Z,1.80
2023-04-23T13:31:31.592Z,1.80
2023-04-23T13:33:58.386Z,1.63
2023-04-23T13:36:25.656Z,1.70
2023-04-23T13:38:52.286Z,1.80
2023-04-23T13:41:18.759Z,1.90
2023-04-23T13:43:45.254Z,2.03
2023-04-23T13:46:12.145Z,1.60
2023-04-23T13:48:38.648Z,1.73
2023-04-23T13:51:10.845Z,1.93
2023-04-23T13:53:43.832Z,1.80
2023-04-23T13:56:10.644Z,1.63
2023-04-23T13:58:37.216Z,1.70
2023-04-23T14:01:04.777Z,1.53
2023-04-23T14:03:31.298Z,2.10
2023-04-23T14:05:58.609Z,2.23
2023-04-23T14:08:25.316Z,1.60
2023-04-23T14:10:52.149Z,1.60
2023-04-23T14:13:18.628Z,1.80
2023-04-23T14:15:45.252Z,2.13
2023-04-23T14:18:11.920Z,1.80
2023-04-23T14:20:38.475Z,1.87
2023-04-23T14:23:27.644Z,1.80
2023-04-23T14:26:03.114Z,1.63
2023-04-23T14:28:34.762Z,1.67
2023-04-23T14:31:02.160Z,1.67
2023-04-23T14:33:28.711Z,1.40
2023-04-23T14:35:55.219Z,2.10
2023-04-23T14:38:21.765Z,1.23
2023-04-23T14:40:48.259Z,1.43
2023-04-23T14:43:15.807Z,1.60
2023-04-23T14:45:42.685Z,1.67
2023-04-23T14:48:09.162Z,1.50
2023-04-23T14:50:35.632Z,1.50
2023-04-23T14:53:06.922Z,1.40
2023-04-23T14:55:34.074Z,1.23
2023-04-23T14:58:00.664Z,1.20
2023-04-23T15:00:27.605Z,1.80
2023-04-23T15:02:54.147Z,1.40
2023-04-23T15:05:21.137Z,1.50
2023-04-23T15:07:47.627Z,1.40
2023-04-23T15:10:14.180Z,1.60
2023-04-23T15:12:40.635Z,1.60
2023-04-23T15:15:36.891Z,1.10
2023-04-23T15:18:07.745Z,1.70
2023-04-23T15:20:34.337Z,1.83
2023-04-23T15:23:00.843Z,1.70
2023-04-23T15:25:27.388Z,2.50
2023-04-23T15:27:57.760Z,2.70
2023-04-23T15:30:26.123Z,3.00
2023-04-23T15:32:56.312Z,2.00
2023-04-23T15:35:24.167Z,2.20
2023-04-23T15:37:50.733Z,2.37
2023-04-23T15:40:17.600Z,2.00
2023-04-23T15:42:48.017Z,1.83
2023-04-23T15:45:14.593Z,2.10
2023-04-23T15:47:42.246Z,2.10
2023-04-23T15:50:09.997Z,2.13
2023-04-23T15:52:37.746Z,2.40
2023-04-23T15:55:05.193Z,2.20
2023-04-23T15:57:32.076Z,2.23
2023-04-23T15:59:58.659Z,2.80
2023-04-23T16:02:25.401Z,2.63
2023-04-23T16:04:52.077Z,2.33
2023-04-23T16:07:18.698Z,2.20
2023-04-23T16:09:45.239Z,2.70
2023-04-23T16:12:12.533Z,2.53
2023-04-23T16:14:39.810Z,2.50
2023-04-23T16:17:06.338Z,2.30
2023-04-23T16:19:32.934Z,2.93
2023-04-23T16:21:59.571Z,3.00
2023-04-23T16:24:26.033Z,3.60
2023-04-23T16:26:52.497Z,3.63
2023-04-23T16:29:22.546Z,3.60
2023-04-23T16:31:49.884Z,3.13
2023-04-23T16:34:16.530Z,2.90
2023-04-23T16:36:43.183Z,3.33
2023-04-23T16:39:09.728Z,3.37
2023-04-23T16:41:36.180Z,3.30
2023-04-23T16:44:02.719Z,3.70
2023-04-23T16:46:30.955Z,4.13
2023-04-23T16:48:58.030Z,4.80
2023-04-23T16:51:25.076Z,4.33
2023-04-23T16:53:51.578Z,5.37
2023-04-23T16:56:18.294Z,4.93
2023-04-23T16:58:44.746Z,4.73
2023-04-23T17:01:11.390Z,4.50
2023-04-23T17:03:39.070Z,5.77
2023-04-23T17:06:20.715Z,5.07
2023-04-23T17:08:47.283Z,4.40
2023-04-23T17:11:13.858Z,4.37
2023-04-23T17:13:43.495Z,4.80
2023-04-23T17:16:10.118Z,4.60
2023-04-23T17:18:36.781Z,4.47
2023-04-23T17:21:03.379Z,5.30
2023-04-23T17:23:29.833Z,4.60
2023-04-23T17:25:56.238Z,5.40
2023-04-23T17:28:22.690Z,3.70
2023-04-23T17:30:50.432Z,4.03
2023-04-23T17:33:21.084Z,3.43
2023-04-23T17:35:51.857Z,3.40
2023-04-23T17:38:21.729Z,3.27
2023-04-23T17:40:52.782Z,3.70
2023-04-23T17:43:19.567Z,4.10
2023-04-23T17:45:47.667Z,3.70
2023-04-23T17:48:15.494Z,3.80
2023-04-23T17:50:42.584Z,3.13
2023-04-23T17:53:09.200Z,3.30
2023-04-23T17:55:36.023Z,3.20
2023-04-23T17:58:05.425Z,3.10
2023-04-23T18:00:40.077Z,3.43
2023-04-23T18:03:08.649Z,3.40
2023-04-23T18:05:36.132Z,3.17
2023-04-23T18:08:03.029Z,3.90
2023-04-23T18:10:29.840Z,3.47
2023-04-23T18:12:56.753Z,3.00
2023-04-23T18:15:25.598Z,4.07
2023-04-23T18:17:54.619Z,5.37
2023-04-23T18:22:49.374Z,2.93
2023-04-23T18:25:15.874Z,2.23
2023-04-23T18:27:42.339Z,2.77
2023-04-23T18:30:09.272Z,2.47
2023-04-23T18:32:41.536Z,2.77
2023-04-23T18:35:09.229Z,2.67
2023-04-23T18:37:43.767Z,2.40
2023-04-23T18:40:11.424Z,2.10
2023-04-23T18:42:38.266Z,2.63
2023-04-23T18:45:05.162Z,2.63
2023-04-23T18:47:38.130Z,2.50
2023-04-23T18:50:09.716Z,2.27
2023-04-23T18:52:37.313Z,2.20
2023-04-23T18:55:03.903Z,2.13
2023-04-23T18:57:30.385Z,2.17
2023-04-23T18:59:56.932Z,2.20
2023-04-23T19:02:34.732Z,1.90
2023-04-23T19:05:02.342Z,2.43
2023-04-23T19:07:28.799Z,2.27
2023-04-23T19:09:55.327Z,2.17
2023-04-23T19:12:21.737Z,1.90
2023-04-23T19:14:48.190Z,1.93
2023-04-23T19:17:16.690Z,1.80
2023-04-23T19:19:44.524Z,2.07
2023-04-23T19:22:11.457Z,2.17
2023-04-23T19:24:37.897Z,1.90
2023-04-23T19:27:05.441Z,2.00
2023-04-23T19:29:32.007Z,1.80
2023-04-23T19:31:58.566Z,1.87
2023-04-23T19:34:28.161Z,1.93
2023-04-23T19:36:54.672Z,1.80
2023-04-23T19:39:23.420Z,2.27
2023-04-23T19:41:50.282Z,1.90
2023-04-23T19:44:16.744Z,1.73
2023-04-23T19:46:43.262Z,2.00
2023-04-23T19:49:09.783Z,1.77
2023-04-23T19:51:38.185Z,10.73
2023-04-23T19:54:05.034Z,3.90
2023-04-23T19:56:31.542Z,2.20
2023-04-23T19:58:58.080Z,1.90
2023-04-23T20:01:25.488Z,1.60
2023-04-23T20:03:53.626Z,1.50
2023-04-23T20:06:21.036Z,1.37
2023-04-23T20:09:06.095Z,1.50
2023-04-23T20:11:33.656Z,1.40
2023-04-23T20:14:00.293Z,1.40
2023-04-23T20:16:28.407Z,1.20
2023-04-23T20:18:58.254Z,1.20
2023-04-23T20:21:24.922Z,1.20
2023-04-23T20:23:51.446Z,1.20
2023-04-23T20:26:19.386Z,1.13
2023-04-23T20:28:48.193Z,1.20
2023-04-23T20:31:15.765Z,1.50
2023-04-23T20:33:42.260Z,1.20
2023-04-23T20:36:10.835Z,1.30
2023-04-23T20:38:38.250Z,1.20
2023-04-23T20:41:10.075Z,1.13
2023-04-23T20:43:39.914Z,4.63
2023-04-23T20:46:10.280Z,2.20
2023-04-23T20:48:36.980Z,1.40
2023-04-23T20:51:03.684Z,1.10
2023-04-23T20:53:30.354Z,1.30
2023-04-23T20:55:57.103Z,1.27
2023-04-23T20:58:23.944Z,1.30
2023-04-23T21:00:51.313Z,1.20
2023-04-23T21:03:18.686Z,1.20
2023-04-23T21:05:45.265Z,1.20
2023-04-23T21:08:13.752Z,1.10
2023-04-23T21:10:41.615Z,1.03
2023-04-23T21:13:11.038Z,1.40
2023-04-23T21:15:38.560Z,1.13
2023-04-23T21:18:05.753Z,1.00
2023-04-23T21:20:32.291Z,1.20
2023-04-23T21:22:58.814Z,1.20
2023-04-23T21:25:26.666Z,1.23
2023-04-23T21:27:55.220Z,1.20
2023-04-23T21:30:41.460Z,1.80
2023-04-23T21:33:08.066Z,1.40
2023-04-23T21:35:34.559Z,1.27
2023-04-23T21:38:01.657Z,1.03
2023-04-23T21:40:28.347Z,1.10
2023-04-23T21:42:54.871Z,1.10
2023-04-23T21:45:21.468Z,1.50
2023-04-23T21:47:47.914Z,1.20
2023-04-23T21:50:17.339Z,1.37
2023-04-23T21:52:43.796Z,1.30
2023-04-23T21:55:12.260Z,1.20
2023-04-23T21:57:39.049Z,1.30
2023-04-23T22:00:06.854Z,1.10
2023-04-23T22:02:33.400Z,1.40
2023-04-23T22:04:59.938Z,1.13
2023-04-23T22:07:26.837Z,1.57
2023-04-23T22:09:53.390Z,1.10
2023-04-23T22:12:19.861Z,1.17
2023-04-23T22:14:46.277Z,1.50
2023-04-23T22:17:12.748Z,1.77
2023-04-23T22:19:39.264Z,1.23
2023-04-23T22:22:06.318Z,1.30
2023-04-23T22:24:32.773Z,1.50
2023-04-23T22:26:59.788Z,1.30
2023-04-23T22:29:26.219Z,1.20
2023-04-23T22:31:52.913Z,1.23
2023-04-23T22:34:19.571Z,1.20
2023-04-23T22:36:46.059Z,1.40
2023-04-23T22:39:12.894Z,1.40
2023-04-23T22:41:40.319Z,1.30
2023-04-23T22:44:06.975Z,1.33
2023-04-23T22:46:33.501Z,1.37
2023-04-23T22:49:01.177Z,1.60
2023-04-23T22:51:27.737Z,1.60
2023-04-23T22:53:54.268Z,1.57
2023-04-23T22:56:21.694Z,1.40
2023-04-23T22:58:48.105Z,1.50
2023-04-23T23:01:14.525Z,1.83
2023-04-23T23:03:41.033Z,1.30
2023-04-23T23:06:07.588Z,2.00
2023-04-23T23:08:33.965Z,1.10
2023-04-23T23:11:00.476Z,1.10
2023-04-23T23:13:26.915Z,1.40
2023-04-23T23:15:53.389Z,1.33
2023-04-23T23:18:19.872Z,1.10
2023-04-23T23:20:47.140Z,1.30
2023-04-23T23:23:13.599Z,1.40
2023-04-23T23:25:40.127Z,1.20
2023-04-23T23:28:06.681Z,1.60
2023-04-23T23:30:33.121Z,1.50
2023-04-23T23:33:00.346Z,1.20
2023-04-23T23:35:26.843Z,1.47
2023-04-23T23:37:53.317Z,1.50
2023-04-23T23:40:19.755Z,1.73
2023-04-23T23:42:46.169Z,1.50
2023-04-23T23:45:12.643Z,1.30
2023-04-23T23:47:39.187Z,1.50
2023-04-23T23:50:06.432Z,1.47
2023-04-23T23:52:33.215Z,1.40
2023-04-23T23:54:59.727Z,1.63
2023-04-23T23:57:26.457Z,1.70
2023-04-23T23:59:52.836Z,1.70
